createdAt,value
2023-03-08T00:01:23.033Z,100
2023-03-08T00:06:24.672Z,100
2023-03-08T00:11:26.085Z,100
2023-03-08T00:16:27.629Z,100
2023-03-08T00:21:29.313Z,100
2023-03-08T00:26:30.818Z,100
2023-03-08T00:31:32.329Z,100
2023-03-08T00:36:33.838Z,100
2023-03-08T00:41:35.460Z,100
2023-03-08T00:46:37.200Z,100
2023-03-08T00:51:38.727Z,100
2023-03-08T00:56:40.180Z,100
2023-03-08T01:01:41.724Z,100
2023-03-08T01:06:43.351Z,100
2023-03-08T01:11:44.977Z,100
2023-03-08T01:16:46.495Z,100
2023-03-08T01:21:48.011Z,100
2023-03-08T01:26:49.486Z,100
2023-03-08T01:31:51.036Z,100
2023-03-08T01:36:52.563Z,100
2023-03-08T01:41:54.096Z,100
2023-03-08T01:46:55.608Z,100
2023-03-08T01:51:57.105Z,100
2023-03-08T01:56:58.691Z,100
2023-03-08T02:02:00.209Z,100
2023-03-08T02:07:01.713Z,100
2023-03-08T02:12:03.322Z,100
2023-03-08T02:17:04.756Z,100
2023-03-08T02:22:06.227Z,100
2023-03-08T02:27:07.812Z,100
2023-03-08T02:32:09.335Z,100
2023-03-08T02:37:10.823Z,100
2023-03-08T02:42:12.294Z,100
2023-03-08T02:47:13.850Z,100
2023-03-08T02:52:15.382Z,100
2023-03-08T02:57:16.878Z,100
2023-03-08T03:02:18.331Z,100
2023-03-08T03:07:19.809Z,100
2023-03-08T03:12:21.336Z,100
2023-03-08T03:17:22.941Z,100
2023-03-08T03:22:24.406Z,100
2023-03-08T03:27:25.878Z,100
2023-03-08T03:32:27.645Z,100
2023-03-08T03:37:29.185Z,100
2023-03-08T03:42:30.749Z,100
2023-03-08T03:47:32.215Z,100
2023-03-08T03:52:33.745Z,100
2023-03-08T03:57:35.238Z,100
2023-03-08T04:02:36.807Z,100
2023-03-08T04:07:38.328Z,100
2023-03-08T04:12:39.828Z,100
2023-03-08T04:17:41.290Z,100
2023-03-08T04:22:42.803Z,100
2023-03-08T04:27:44.367Z,100
2023-03-08T04:32:45.847Z,100
2023-03-08T04:37:49.664Z,100
2023-03-08T04:42:51.514Z,100
2023-03-08T04:47:52.995Z,100
2023-03-08T04:52:54.458Z,100
2023-03-08T04:57:55.960Z,100
2023-03-08T05:02:57.480Z,100
2023-03-08T05:07:58.990Z,100
2023-03-08T05:13:00.522Z,100
2023-03-08T05:18:02.076Z,100
2023-03-08T05:23:03.533Z,100
2023-03-08T05:28:05.156Z,100
2023-03-08T05:33:06.699Z,100
2023-03-08T05:38:08.185Z,100
2023-03-08T05:43:09.710Z,100
2023-03-08T05:48:11.120Z,100
2023-03-08T05:53:12.638Z,100
2023-03-08T05:58:14.133Z,100
2023-03-08T06:03:15.730Z,100
2023-03-08T06:08:17.927Z,100
2023-03-08T06:13:19.477Z,100
2023-03-08T06:18:21.078Z,100
2023-03-08T06:23:22.554Z,100
2023-03-08T06:28:24.096Z,100
2023-03-08T06:33:25.569Z,100
2023-03-08T06:38:29.460Z,100
2023-03-08T06:43:31.602Z,100
2023-03-08T06:48:33.118Z,100
2023-03-08T06:53:34.665Z,100
2023-03-08T06:58:36.128Z,100
2023-03-08T07:03:37.608Z,100
2023-03-08T07:08:39.104Z,100
2023-03-08T07:13:40.618Z,100
2023-03-08T07:18:42.167Z,100
2023-03-08T07:23:43.772Z,100
2023-03-08T07:28:45.380Z,100
2023-03-08T07:33:46.882Z,100
2023-03-08T07:38:48.384Z,100
2023-03-08T07:43:49.872Z,100
2023-03-08T07:48:53.038Z,100
2023-03-08T07:53:56.268Z,100
2023-03-08T07:58:57.813Z,100
2023-03-08T08:03:59.487Z,100
2023-03-08T08:09:01.063Z,100
2023-03-08T08:14:02.614Z,94.82758
2023-03-08T08:19:04.090Z,85.95598
2023-03-08T08:24:05.657Z,93.66912
2023-03-08T08:29:07.130Z,96.2397
2023-03-08T08:34:08.606Z,99.85534
2023-03-08T08:39:10.141Z,96.67475
2023-03-08T08:44:11.793Z,97.25919
2023-03-08T08:49:13.366Z,95.00566
2023-03-08T08:54:14.916Z,90.54072
2023-03-08T08:59:16.450Z,84.97652
2023-03-08T09:04:18.186Z,78.86656
2023-03-08T09:09:19.745Z,79.8096
2023-03-08T09:14:21.427Z,71.02895
2023-03-08T09:19:23.134Z,73.55313
2023-03-08T09:24:24.721Z,74.45653
2023-03-08T09:29:26.338Z,67.56554
2023-03-08T09:34:27.788Z,72.01415
2023-03-08T09:39:29.253Z,63.57167
2023-03-08T09:44:30.735Z,65.47393
2023-03-08T09:49:32.324Z,63.33957
2023-03-08T09:54:34.268Z,62.7311
2023-03-08T09:59:35.720Z,63.26849
2023-03-08T10:04:37.259Z,63.56505
2023-03-08T10:09:38.826Z,59.71444
2023-03-08T10:14:40.399Z,63.2482
2023-03-08T10:19:41.843Z,59.33182
2023-03-08T10:24:43.396Z,62.4208
2023-03-08T10:29:45.010Z,57.44883
2023-03-08T10:34:46.595Z,60.19452
2023-03-08T10:39:48.211Z,54.55266
2023-03-08T10:44:49.901Z,54.77536
2023-03-08T10:49:51.383Z,54.99277
2023-03-08T10:54:52.802Z,53.76551
2023-03-08T10:59:54.436Z,55.90633
2023-03-08T11:04:56.161Z,52.6165
2023-03-08T11:09:57.801Z,58.85202
2023-03-08T11:14:59.301Z,53.19248
2023-03-08T11:20:00.915Z,56.9549
2023-03-08T11:25:02.334Z,56.89184
2023-03-08T11:30:03.988Z,57.69777
2023-03-08T11:35:05.561Z,56.95167
2023-03-08T11:40:07.106Z,55.80851
2023-03-08T11:45:08.623Z,54.55562
2023-03-08T11:50:10.205Z,55.83204
2023-03-08T11:55:11.664Z,51.96724
2023-03-08T12:00:13.300Z,53.41224
2023-03-08T12:05:14.906Z,50.42361
2023-03-08T12:10:17.185Z,51.8589
2023-03-08T12:15:19.468Z,51.8892
2023-03-08T12:20:21.244Z,51.80296
2023-03-08T12:25:22.744Z,55.28329
2023-03-08T12:30:24.219Z,56.26758
2023-03-08T12:35:25.780Z,54.99892
2023-03-08T12:40:27.281Z,54.95827
2023-03-08T12:45:28.947Z,54.21064
2023-03-08T12:50:30.444Z,53.71533
2023-03-08T12:55:32.098Z,53.35049
2023-03-08T13:00:33.627Z,50.37771
2023-03-08T13:05:35.092Z,50.48455
2023-03-08T13:10:36.684Z,49.24632
2023-03-08T13:15:38.136Z,50.09141
2023-03-08T13:20:41.463Z,49.05372
2023-03-08T13:25:43.444Z,48.27252
2023-03-08T13:30:44.909Z,47.88749
2023-03-08T13:35:46.501Z,47.91925
2023-03-08T13:40:48.126Z,47.93287
2023-03-08T13:45:49.769Z,46.58046
2023-03-08T13:50:51.298Z,50.25263
2023-03-08T13:55:52.763Z,52.38509
2023-03-08T14:00:54.332Z,47.30121
2023-03-08T14:05:55.849Z,48.2657
2023-03-08T14:10:57.404Z,47.71488
2023-03-08T14:15:58.933Z,46.99798
2023-03-08T14:21:00.538Z,50.47924
2023-03-08T14:26:03.764Z,51.31906
2023-03-08T14:31:08.379Z,49.57128
2023-03-08T14:36:11.533Z,50.37335
2023-03-08T14:41:14.045Z,50.11698
2023-03-08T14:46:15.573Z,46.43017
2023-03-08T14:51:17.213Z,45.9543
2023-03-08T14:56:18.697Z,48.74816
2023-03-08T15:01:20.262Z,48.01363
2023-03-08T15:06:21.874Z,48.62057
2023-03-08T15:11:23.462Z,49.54117
2023-03-08T15:16:24.992Z,52.41424
2023-03-08T15:21:26.507Z,51.08234
2023-03-08T15:26:27.993Z,50.78207
2023-03-08T15:31:29.599Z,50.46524
2023-03-08T15:36:31.145Z,51.78851
2023-03-08T15:41:32.611Z,51.3583
2023-03-08T15:46:34.184Z,53.02868
2023-03-08T15:51:35.751Z,52.49557
2023-03-08T15:56:37.545Z,54.08761
2023-03-08T16:01:39.100Z,53.97293
2023-03-08T16:06:40.846Z,53.24685
2023-03-08T16:11:42.560Z,53.3185
2023-03-08T16:16:45.908Z,55.90214
2023-03-08T16:21:47.592Z,61.0706
2023-03-08T16:26:49.062Z,64.04304
2023-03-08T16:31:50.616Z,60.56775
2023-03-08T16:36:52.251Z,58.81623
2023-03-08T16:41:53.863Z,59.37886
2023-03-08T16:46:55.335Z,60.51516
2023-03-08T16:51:56.834Z,62.38499
2023-03-08T16:57:01.094Z,63.39189
2023-03-08T17:02:06.599Z,63.4217
2023-03-08T17:07:08.083Z,62.98231
2023-03-08T17:12:09.585Z,66.97056
2023-03-08T17:17:11.214Z,65.03704
2023-03-08T17:22:12.718Z,65.61672
2023-03-08T17:27:14.202Z,65.84346
2023-03-08T17:32:15.847Z,70.52036
2023-03-08T17:37:17.431Z,72.58816
2023-03-08T17:42:19.063Z,73.40753
2023-03-08T17:47:20.742Z,76.1795
2023-03-08T17:52:22.245Z,78.14074
2023-03-08T17:57:23.852Z,76.65675
2023-03-08T18:02:25.351Z,77.34787
2023-03-08T18:07:27.085Z,77.97901
2023-03-08T18:12:28.622Z,77.8983
2023-03-08T18:17:30.217Z,77.50628
2023-03-08T18:22:31.725Z,80.25356
2023-03-08T18:27:34.467Z,81.82275
2023-03-08T18:32:36.444Z,81.18346
2023-03-08T18:37:38.147Z,79.85297
2023-03-08T18:42:39.636Z,81.42793
2023-03-08T18:47:41.266Z,80.80173
2023-03-08T18:52:42.804Z,81.19965
2023-03-08T18:57:44.243Z,82.8451
2023-03-08T19:02:45.799Z,87.04069
2023-03-08T19:07:47.640Z,89.74646
2023-03-08T19:12:49.178Z,89.65717
2023-03-08T19:17:50.788Z,91.11471
2023-03-08T19:22:52.256Z,91.50389
2023-03-08T19:27:53.893Z,90.92716
2023-03-08T19:32:55.401Z,89.89252
2023-03-08T19:37:56.962Z,92.34724
2023-03-08T19:42:58.468Z,94.64037
2023-03-08T19:48:00.153Z,96.52183
2023-03-08T19:53:01.579Z,95.94211
2023-03-08T19:58:03.165Z,96.26215
2023-03-08T20:03:04.664Z,97.92093
2023-03-08T20:08:06.194Z,99.17347
2023-03-08T20:13:08.196Z,96.43177
2023-03-08T20:18:10.087Z,95.09619
2023-03-08T20:23:11.513Z,99.01098
2023-03-08T20:28:13.094Z,99.42299
2023-03-08T20:33:14.574Z,97.72638
2023-03-08T20:38:16.045Z,96.27155
2023-03-08T20:43:17.541Z,99.05515
2023-03-08T20:48:19.091Z,99.53781
2023-03-08T20:53:20.599Z,96.9065
2023-03-08T20:58:22.122Z,98.27299
2023-03-08T21:03:23.604Z,95.77592
2023-03-08T21:08:25.121Z,94.69034
2023-03-08T21:13:27.394Z,94.96573
2023-03-08T21:18:28.890Z,95.70904
2023-03-08T21:23:30.341Z,98.54274
2023-03-08T21:28:31.994Z,97.72198
2023-03-08T21:33:33.611Z,95.38917
2023-03-08T21:38:35.222Z,97.6041
2023-03-08T21:43:37.397Z,97.91338
2023-03-08T21:48:38.906Z,93.13685
2023-03-08T21:53:40.392Z,95.50986
2023-03-08T21:58:41.925Z,97.44631
2023-03-08T22:03:43.580Z,97.15198
2023-03-08T22:08:45.146Z,95.93085
2023-03-08T22:13:46.643Z,99.17234
2023-03-08T22:18:48.343Z,95.29506
2023-03-08T22:23:51.391Z,93.99251
2023-03-08T22:28:53.149Z,96.95294
2023-03-08T22:33:54.784Z,96.7371
2023-03-08T22:38:56.348Z,97.86658
2023-03-08T22:43:57.850Z,97.36215
2023-03-08T22:48:59.360Z,95.3993
2023-03-08T22:54:00.802Z,95.71701
2023-03-08T22:59:02.291Z,97.64167
2023-03-08T23:04:04.059Z,100
2023-03-08T23:09:05.534Z,98.31333
2023-03-08T23:14:07.049Z,99.7581
2023-03-08T23:19:08.496Z,100
2023-03-08T23:24:10.019Z,97.73229
2023-03-08T23:29:11.510Z,100
2023-03-08T23:34:13.148Z,100
2023-03-08T23:39:14.637Z,100
2023-03-08T23:44:16.156Z,100
2023-03-08T23:49:17.668Z,100
2023-03-08T23:54:19.141Z,99.88015
2023-03-08T23:59:20.608Z,100
